sensor_id;sensor_type;location;lat;lon;timestamp;temperature;humidity
40828;DHT22;26549;50.918;5.338;2024-03-25T00:02:00;6.80;99.90
40828;DHT22;26549;50.918;5.338;2024-03-25T00:04:26;6.80;99.90
40828;DHT22;26549;50.918;5.338;2024-03-25T00:06:53;6.90;99.90
40828;DHT22;26549;50.918;5.338;2024-03-25T00:09:22;7.00;99.90
40828;DHT22;26549;50.918;5.338;2024-03-25T00:11:49;7.00;99.90
40828;DHT22;26549;50.918;5.338;2024-03-25T00:14:20;6.90;99.90
40828;DHT22;26549;50.918;5.338;2024-03-25T00:16:47;6.80;99.90
40828;DHT22;26549;50.918;5.338;2024-03-25T00:19:16;6.80;99.90
40828;DHT22;26549;50.918;5.338;2024-03-25T00:21:42;6.80;99.90
40828;DHT22;26549;50.918;5.338;2024-03-25T00:24:10;6.80;99.90
40828;DHT22;26549;50.918;5.338;2024-03-25T00:26:37;6.80;99.90
40828;DHT22;26549;50.918;5.338;2024-03-25T00:29:06;6.70;99.90
40828;DHT22;26549;50.918;5.338;2024-03-25T00:31:34;6.80;99.90
40828;DHT22;26549;50.918;5.338;2024-03-25T00:34:00;6.70;99.90
40828;DHT22;26549;50.918;5.338;2024-03-25T00:36:26;6.70;99.90
40828;DHT22;26549;50.918;5.338;2024-03-25T00:38:53;6.80;99.90
40828;DHT22;26549;50.918;5.338;2024-03-25T00:41:22;6.80;99.90
40828;DHT22;26549;50.918;5.338;2024-03-25T00:43:50;6.80;99.90
40828;DHT22;26549;50.918;5.338;2024-03-25T00:46:18;6.70;99.90
40828;DHT22;26549;50.918;5.338;2024-03-25T00:48:45;6.70;99.90
40828;DHT22;26549;50.918;5.338;2024-03-25T00:51:14;6.70;99.90
40828;DHT22;26549;50.918;5.338;2024-03-25T00:53:40;6.70;99.90
40828;DHT22;26549;50.918;5.338;2024-03-25T00:56:06;6.70;99.90
40828;DHT22;26549;50.918;5.338;2024-03-25T00:58:32;6.70;99.90
40828;DHT22;26549;50.918;5.338;2024-03-25T01:01:00;6.80;99.90
40828;DHT22;26549;50.918;5.338;2024-03-25T01:03:26;6.80;99.90
40828;DHT22;26549;50.918;5.338;2024-03-25T01:05:52;6.70;99.90
40828;DHT22;26549;50.918;5.338;2024-03-25T01:08:21;6.80;99.90
40828;DHT22;26549;50.918;5.338;2024-03-25T01:10:48;6.70;99.90
40828;DHT22;26549;50.918;5.338;2024-03-25T01:13:14;6.70;99.90
40828;DHT22;26549;50.918;5.338;2024-03-25T01:15:43;6.70;99.90
40828;DHT22;26549;50.918;5.338;2024-03-25T01:18:08;6.80;99.90
40828;DHT22;26549;50.918;5.338;2024-03-25T01:20:34;6.80;99.90
40828;DHT22;26549;50.918;5.338;2024-03-25T01:23:00;6.80;99.90
40828;DHT22;26549;50.918;5.338;2024-03-25T01:25:25;6.80;99.90
40828;DHT22;26549;50.918;5.338;2024-03-25T01:27:54;6.90;99.90
40828;DHT22;26549;50.918;5.338;2024-03-25T01:30:23;6.80;99.90
40828;DHT22;26549;50.918;5.338;2024-03-25T01:32:49;6.80;99.90
40828;DHT22;26549;50.918;5.338;2024-03-25T01:35:18;6.80;99.90
40828;DHT22;26549;50.918;5.338;2024-03-25T01:37:44;6.80;99.90
40828;DHT22;26549;50.918;5.338;2024-03-25T01:40:12;6.90;99.90
40828;DHT22;26549;50.918;5.338;2024-03-25T01:42:39;6.80;99.90
40828;DHT22;26549;50.918;5.338;2024-03-25T01:45:12;6.80;99.90
40828;DHT22;26549;50.918;5.338;2024-03-25T01:47:40;6.80;99.90
40828;DHT22;26549;50.918;5.338;2024-03-25T01:50:07;6.70;99.90
40828;DHT22;26549;50.918;5.338;2024-03-25T01:52:36;6.80;99.90
40828;DHT22;26549;50.918;5.338;2024-03-25T01:55:03;6.70;99.90
40828;DHT22;26549;50.918;5.338;2024-03-25T01:57:30;6.70;99.90
40828;DHT22;26549;50.918;5.338;2024-03-25T01:59:57;6.70;99.90
40828;DHT22;26549;50.918;5.338;2024-03-25T02:02:29;6.70;99.90
40828;DHT22;26549;50.918;5.338;2024-03-25T02:04:58;6.70;99.90
40828;DHT22;26549;50.918;5.338;2024-03-25T02:07:27;6.60;99.90
40828;DHT22;26549;50.918;5.338;2024-03-25T02:09:56;6.60;99.90
40828;DHT22;26549;50.918;5.338;2024-03-25T02:12:23;6.60;99.90
40828;DHT22;26549;50.918;5.338;2024-03-25T02:14:52;6.60;99.90
40828;DHT22;26549;50.918;5.338;2024-03-25T02:17:18;6.60;99.90
40828;DHT22;26549;50.918;5.338;2024-03-25T02:19:46;6.60;99.90
40828;DHT22;26549;50.918;5.338;2024-03-25T02:22:15;6.70;99.90
40828;DHT22;26549;50.918;5.338;2024-03-25T02:24:45;6.60;99.90
40828;DHT22;26549;50.918;5.338;2024-03-25T02:27:12;6.60;99.90
40828;DHT22;26549;50.918;5.338;2024-03-25T02:29:42;6.60;99.90
40828;DHT22;26549;50.918;5.338;2024-03-25T02:32:08;6.60;99.90
40828;DHT22;26549;50.918;5.338;2024-03-25T02:34:45;6.50;99.90
40828;DHT22;26549;50.918;5.338;2024-03-25T02:37:15;6.40;99.90
40828;DHT22;26549;50.918;5.338;2024-03-25T02:39:41;6.40;99.90
40828;DHT22;26549;50.918;5.338;2024-03-25T02:42:10;6.30;99.90
40828;DHT22;26549;50.918;5.338;2024-03-25T02:44:36;6.40;99.90
40828;DHT22;26549;50.918;5.338;2024-03-25T02:47:05;6.40;99.90
40828;DHT22;26549;50.918;5.338;2024-03-25T02:49:31;6.30;99.90
40828;DHT22;26549;50.918;5.338;2024-03-25T02:52:00;6.20;99.90
40828;DHT22;26549;50.918;5.338;2024-03-25T02:54:26;6.10;99.90
40828;DHT22;26549;50.918;5.338;2024-03-25T02:56:52;6.10;99.90
40828;DHT22;26549;50.918;5.338;2024-03-25T02:59:20;6.00;99.90
40828;DHT22;26549;50.918;5.338;2024-03-25T03:01:48;5.80;99.90
40828;DHT22;26549;50.918;5.338;2024-03-25T03:04:14;5.80;99.90
40828;DHT22;26549;50.918;5.338;2024-03-25T03:06:40;5.80;99.90
40828;DHT22;26549;50.918;5.338;2024-03-25T03:09:08;5.80;99.90
40828;DHT22;26549;50.918;5.338;2024-03-25T03:11:36;5.90;99.90
40828;DHT22;26549;50.918;5.338;2024-03-25T03:14:04;5.90;99.90
40828;DHT22;26549;50.918;5.338;2024-03-25T03:16:33;5.90;99.90
40828;DHT22;26549;50.918;5.338;2024-03-25T03:19:02;5.90;99.90
40828;DHT22;26549;50.918;5.338;2024-03-25T03:21:29;6.00;99.90
40828;DHT22;26549;50.918;5.338;2024-03-25T03:23:57;6.10;99.90
40828;DHT22;26549;50.918;5.338;2024-03-25T03:26:26;6.00;99.90
40828;DHT22;26549;50.918;5.338;2024-03-25T03:28:57;5.90;99.90
40828;DHT22;26549;50.918;5.338;2024-03-25T03:31:25;5.90;99.90
40828;DHT22;26549;50.918;5.338;2024-03-25T03:33:54;5.80;99.90
40828;DHT22;26549;50.918;5.338;2024-03-25T03:36:21;5.80;99.90
40828;DHT22;26549;50.918;5.338;2024-03-25T03:38:52;5.80;99.90
40828;DHT22;26549;50.918;5.338;2024-03-25T03:41:21;5.90;99.90
40828;DHT22;26549;50.918;5.338;2024-03-25T03:43:47;5.80;99.90
40828;DHT22;26549;50.918;5.338;2024-03-25T03:46:13;5.80;99.90
40828;DHT22;26549;50.918;5.338;2024-03-25T03:48:39;5.80;99.90
40828;DHT22;26549;50.918;5.338;2024-03-25T03:51:08;5.70;99.90
40828;DHT22;26549;50.918;5.338;2024-03-25T03:53:35;5.60;99.90
40828;DHT22;26549;50.918;5.338;2024-03-25T03:56:04;5.50;99.90
40828;DHT22;26549;50.918;5.338;2024-03-25T03:58:31;5.50;99.90
40828;DHT22;26549;50.918;5.338;2024-03-25T04:01:00;5.30;99.90
40828;DHT22;26549;50.918;5.338;2024-03-25T04:03:29;5.30;99.90
40828;DHT22;26549;50.918;5.338;2024-03-25T04:05:55;5.40;99.90
40828;DHT22;26549;50.918;5.338;2024-03-25T04:08:21;5.40;99.90
40828;DHT22;26549;50.918;5.338;2024-03-25T04:10:50;5.40;99.90
40828;DHT22;26549;50.918;5.338;2024-03-25T04:13:16;5.40;99.90
40828;DHT22;26549;50.918;5.338;2024-03-25T04:15:42;5.30;99.90
40828;DHT22;26549;50.918;5.338;2024-03-25T04:18:11;5.30;99.90
40828;DHT22;26549;50.918;5.338;2024-03-25T04:20:40;5.40;99.90
40828;DHT22;26549;50.918;5.338;2024-03-25T04:23:08;5.30;99.90
40828;DHT22;26549;50.918;5.338;2024-03-25T04:25:35;5.40;99.90
40828;DHT22;26549;50.918;5.338;2024-03-25T04:28:05;5.40;99.90
40828;DHT22;26549;50.918;5.338;2024-03-25T04:30:35;5.30;99.90
40828;DHT22;26549;50.918;5.338;2024-03-25T04:33:04;5.30;99.90
40828;DHT22;26549;50.918;5.338;2024-03-25T04:35:32;5.40;99.90
40828;DHT22;26549;50.918;5.338;2024-03-25T04:37:58;5.40;99.90
40828;DHT22;26549;50.918;5.338;2024-03-25T04:40:27;5.40;99.90
40828;DHT22;26549;50.918;5.338;2024-03-25T04:42:55;5.40;99.90
40828;DHT22;26549;50.918;5.338;2024-03-25T04:45:23;5.40;99.90
40828;DHT22;26549;50.918;5.338;2024-03-25T04:47:51;5.50;99.90
40828;DHT22;26549;50.918;5.338;2024-03-25T04:50:19;5.50;99.90
40828;DHT22;26549;50.918;5.338;2024-03-25T04:52:48;5.60;99.90
40828;DHT22;26549;50.918;5.338;2024-03-25T04:55:15;5.60;99.90
40828;DHT22;26549;50.918;5.338;2024-03-25T04:57:41;5.70;99.90
40828;DHT22;26549;50.918;5.338;2024-03-25T05:00:11;5.50;99.90
40828;DHT22;26549;50.918;5.338;2024-03-25T05:02:39;5.60;99.90
40828;DHT22;26549;50.918;5.338;2024-03-25T05:05:08;5.60;99.90
40828;DHT22;26549;50.918;5.338;2024-03-25T05:07:38;5.60;99.90
40828;DHT22;26549;50.918;5.338;2024-03-25T05:10:07;5.50;99.90
40828;DHT22;26549;50.918;5.338;2024-03-25T05:12:34;5.60;99.90
40828;DHT22;26549;50.918;5.338;2024-03-25T05:14:59;5.60;99.90
40828;DHT22;26549;50.918;5.338;2024-03-25T05:17:25;5.60;99.90
40828;DHT22;26549;50.918;5.338;2024-03-25T05:19:51;5.60;99.90
40828;DHT22;26549;50.918;5.338;2024-03-25T05:22:17;5.60;99.90
40828;DHT22;26549;50.918;5.338;2024-03-25T05:24:42;5.70;99.90
40828;DHT22;26549;50.918;5.338;2024-03-25T05:27:08;5.80;99.90
40828;DHT22;26549;50.918;5.338;2024-03-25T05:29:35;5.80;99.90
40828;DHT22;26549;50.918;5.338;2024-03-25T05:32:01;5.70;99.90
40828;DHT22;26549;50.918;5.338;2024-03-25T05:34:28;5.80;99.90
40828;DHT22;26549;50.918;5.338;2024-03-25T05:36:55;5.90;99.90
40828;DHT22;26549;50.918;5.338;2024-03-25T05:39:21;5.90;99.90
40828;DHT22;26549;50.918;5.338;2024-03-25T05:41:47;5.90;99.90
40828;DHT22;26549;50.918;5.338;2024-03-25T05:44:13;5.90;99.90
40828;DHT22;26549;50.918;5.338;2024-03-25T05:46:40;5.90;99.90
40828;DHT22;26549;50.918;5.338;2024-03-25T05:49:06;5.90;99.90
40828;DHT22;26549;50.918;5.338;2024-03-25T05:51:33;6.00;99.90
40828;DHT22;26549;50.918;5.338;2024-03-25T05:54:00;6.00;99.90
40828;DHT22;26549;50.918;5.338;2024-03-25T05:56:28;6.00;99.90
40828;DHT22;26549;50.918;5.338;2024-03-25T05:59:00;6.00;99.90
40828;DHT22;26549;50.918;5.338;2024-03-25T06:01:27;6.00;99.90
40828;DHT22;26549;50.918;5.338;2024-03-25T06:03:53;6.00;99.90
40828;DHT22;26549;50.918;5.338;2024-03-25T06:06:18;6.10;99.90
40828;DHT22;26549;50.918;5.338;2024-03-25T06:08:44;6.10;99.90
40828;DHT22;26549;50.918;5.338;2024-03-25T06:11:10;6.20;99.90
40828;DHT22;26549;50.918;5.338;2024-03-25T06:13:36;6.30;99.90
40828;DHT22;26549;50.918;5.338;2024-03-25T06:16:02;6.30;99.90
40828;DHT22;26549;50.918;5.338;2024-03-25T06:18:28;6.40;99.90
40828;DHT22;26549;50.918;5.338;2024-03-25T06:20:53;6.60;99.90
40828;DHT22;26549;50.918;5.338;2024-03-25T06:23:24;6.70;99.90
40828;DHT22;26549;50.918;5.338;2024-03-25T06:25:53;6.80;99.90
40828;DHT22;26549;50.918;5.338;2024-03-25T06:28:20;6.90;99.90
40828;DHT22;26549;50.918;5.338;2024-03-25T06:30:48;7.00;99.90
40828;DHT22;26549;50.918;5.338;2024-03-25T06:33:33;7.10;99.90
40828;DHT22;26549;50.918;5.338;2024-03-25T06:36:18;7.40;99.90
40828;DHT22;26549;50.918;5.338;2024-03-25T06:38:44;7.50;99.90
40828;DHT22;26549;50.918;5.338;2024-03-25T06:41:12;7.40;99.90
40828;DHT22;26549;50.918;5.338;2024-03-25T06:43:38;7.70;99.90
40828;DHT22;26549;50.918;5.338;2024-03-25T06:46:06;7.80;99.90
40828;DHT22;26549;50.918;5.338;2024-03-25T06:48:33;7.90;99.90
40828;DHT22;26549;50.918;5.338;2024-03-25T06:51:00;8.00;99.90
40828;DHT22;26549;50.918;5.338;2024-03-25T06:53:28;8.10;99.90
40828;DHT22;26549;50.918;5.338;2024-03-25T06:55:55;8.20;99.90
40828;DHT22;26549;50.918;5.338;2024-03-25T06:58:23;8.20;99.90
40828;DHT22;26549;50.918;5.338;2024-03-25T07:00:51;8.20;99.90
40828;DHT22;26549;50.918;5.338;2024-03-25T07:03:21;8.20;99.90
40828;DHT22;26549;50.918;5.338;2024-03-25T07:05:49;8.20;99.90
40828;DHT22;26549;50.918;5.338;2024-03-25T07:08:15;8.10;99.90
40828;DHT22;26549;50.918;5.338;2024-03-25T07:10:44;8.00;99.90
40828;DHT22;26549;50.918;5.338;2024-03-25T07:13:10;8.00;99.90
40828;DHT22;26549;50.918;5.338;2024-03-25T07:15:36;8.00;99.90
40828;DHT22;26549;50.918;5.338;2024-03-25T07:18:03;8.20;99.90
40828;DHT22;26549;50.918;5.338;2024-03-25T07:20:29;8.20;99.90
40828;DHT22;26549;50.918;5.338;2024-03-25T07:22:55;8.10;99.90
40828;DHT22;26549;50.918;5.338;2024-03-25T07:25:24;8.10;99.90
40828;DHT22;26549;50.918;5.338;2024-03-25T07:27:52;8.10;99.90
40828;DHT22;26549;50.918;5.338;2024-03-25T07:30:18;8.20;99.90
40828;DHT22;26549;50.918;5.338;2024-03-25T07:32:44;8.30;99.90
40828;DHT22;26549;50.918;5.338;2024-03-25T07:35:14;8.30;99.90
40828;DHT22;26549;50.918;5.338;2024-03-25T07:37:43;8.40;99.90
40828;DHT22;26549;50.918;5.338;2024-03-25T07:40:10;8.50;99.90
40828;DHT22;26549;50.918;5.338;2024-03-25T07:42:42;8.50;99.90
40828;DHT22;26549;50.918;5.338;2024-03-25T07:45:08;8.60;99.90
40828;DHT22;26549;50.918;5.338;2024-03-25T07:47:37;8.70;99.90
40828;DHT22;26549;50.918;5.338;2024-03-25T07:50:06;8.70;99.90
40828;DHT22;26549;50.918;5.338;2024-03-25T07:52:33;8.80;99.90
40828;DHT22;26549;50.918;5.338;2024-03-25T07:55:05;8.80;99.90
40828;DHT22;26549;50.918;5.338;2024-03-25T07:57:30;8.90;99.90
40828;DHT22;26549;50.918;5.338;2024-03-25T08:00:03;8.90;99.90
40828;DHT22;26549;50.918;5.338;2024-03-25T08:02:34;9.00;99.90
40828;DHT22;26549;50.918;5.338;2024-03-25T08:05:00;9.00;99.90
40828;DHT22;26549;50.918;5.338;2024-03-25T08:07:25;9.10;99.90
40828;DHT22;26549;50.918;5.338;2024-03-25T08:09:51;9.10;99.90
40828;DHT22;26549;50.918;5.338;2024-03-25T08:12:21;9.30;99.90
40828;DHT22;26549;50.918;5.338;2024-03-25T08:14:52;9.40;99.90
40828;DHT22;26549;50.918;5.338;2024-03-25T08:17:18;9.50;99.90
40828;DHT22;26549;50.918;5.338;2024-03-25T08:19:43;9.60;99.90
40828;DHT22;26549;50.918;5.338;2024-03-25T08:22:12;9.60;99.90
40828;DHT22;26549;50.918;5.338;2024-03-25T08:24:39;9.60;99.90
40828;DHT22;26549;50.918;5.338;2024-03-25T08:27:06;9.70;99.90
40828;DHT22;26549;50.918;5.338;2024-03-25T08:29:32;9.90;99.90
40828;DHT22;26549;50.918;5.338;2024-03-25T08:31:59;9.80;99.90
40828;DHT22;26549;50.918;5.338;2024-03-25T08:34:25;9.80;99.90
40828;DHT22;26549;50.918;5.338;2024-03-25T08:36:50;9.90;99.90
40828;DHT22;26549;50.918;5.338;2024-03-25T08:39:16;10.00;99.90
40828;DHT22;26549;50.918;5.338;2024-03-25T08:41:43;9.90;99.90
40828;DHT22;26549;50.918;5.338;2024-03-25T08:44:08;9.90;99.90
40828;DHT22;26549;50.918;5.338;2024-03-25T08:46:35;10.00;99.90
40828;DHT22;26549;50.918;5.338;2024-03-25T08:49:03;10.00;99.90
40828;DHT22;26549;50.918;5.338;2024-03-25T08:51:29;10.10;99.90
40828;DHT22;26549;50.918;5.338;2024-03-25T08:53:57;10.10;99.90
40828;DHT22;26549;50.918;5.338;2024-03-25T08:56:26;10.20;99.90
40828;DHT22;26549;50.918;5.338;2024-03-25T08:58:52;10.10;99.90
40828;DHT22;26549;50.918;5.338;2024-03-25T09:01:23;10.10;99.90
40828;DHT22;26549;50.918;5.338;2024-03-25T09:03:50;10.10;99.90
40828;DHT22;26549;50.918;5.338;2024-03-25T09:06:18;10.20;99.90
40828;DHT22;26549;50.918;5.338;2024-03-25T09:08:46;10.30;99.90
40828;DHT22;26549;50.918;5.338;2024-03-25T09:11:31;10.40;99.90
40828;DHT22;26549;50.918;5.338;2024-03-25T09:13:57;10.60;99.90
40828;DHT22;26549;50.918;5.338;2024-03-25T09:16:24;10.70;99.90
40828;DHT22;26549;50.918;5.338;2024-03-25T09:18:52;10.80;99.90
40828;DHT22;26549;50.918;5.338;2024-03-25T09:21:18;10.70;99.90
40828;DHT22;26549;50.918;5.338;2024-03-25T09:23:46;10.80;99.90
40828;DHT22;26549;50.918;5.338;2024-03-25T09:26:14;10.80;99.90
40828;DHT22;26549;50.918;5.338;2024-03-25T09:28:40;10.90;99.90
40828;DHT22;26549;50.918;5.338;2024-03-25T09:31:07;11.00;99.90
40828;DHT22;26549;50.918;5.338;2024-03-25T09:33:34;11.00;99.90
40828;DHT22;26549;50.918;5.338;2024-03-25T09:36:01;11.10;99.90
40828;DHT22;26549;50.918;5.338;2024-03-25T09:38:27;11.20;99.90
40828;DHT22;26549;50.918;5.338;2024-03-25T09:40:55;11.20;99.90
40828;DHT22;26549;50.918;5.338;2024-03-25T09:43:37;11.30;99.90
40828;DHT22;26549;50.918;5.338;2024-03-25T09:46:06;11.30;99.90
40828;DHT22;26549;50.918;5.338;2024-03-25T09:48:32;11.30;99.90
40828;DHT22;26549;50.918;5.338;2024-03-25T09:50:58;11.20;99.90
40828;DHT22;26549;50.918;5.338;2024-03-25T09:53:25;11.40;99.90
40828;DHT22;26549;50.918;5.338;2024-03-25T09:55:50;11.60;99.90
40828;DHT22;26549;50.918;5.338;2024-03-25T09:58:18;11.40;99.90
40828;DHT22;26549;50.918;5.338;2024-03-25T10:00:45;11.60;99.90
40828;DHT22;26549;50.918;5.338;2024-03-25T10:03:11;11.70;99.90
40828;DHT22;26549;50.918;5.338;2024-03-25T10:05:41;11.70;99.90
40828;DHT22;26549;50.918;5.338;2024-03-25T10:08:07;11.70;99.90
40828;DHT22;26549;50.918;5.338;2024-03-25T10:10:36;11.90;99.90
40828;DHT22;26549;50.918;5.338;2024-03-25T10:13:06;12.00;99.90
40828;DHT22;26549;50.918;5.338;2024-03-25T10:15:32;12.00;99.90
40828;DHT22;26549;50.918;5.338;2024-03-25T10:18:04;12.00;99.90
40828;DHT22;26549;50.918;5.338;2024-03-25T10:20:30;12.10;99.90
40828;DHT22;26549;50.918;5.338;2024-03-25T10:22:56;11.90;99.90
40828;DHT22;26549;50.918;5.338;2024-03-25T10:25:27;12.00;99.90
40828;DHT22;26549;50.918;5.338;2024-03-25T10:28:01;12.10;99.90
40828;DHT22;26549;50.918;5.338;2024-03-25T10:30:28;12.00;99.90
40828;DHT22;26549;50.918;5.338;2024-03-25T10:33:05;12.00;99.90
40828;DHT22;26549;50.918;5.338;2024-03-25T10:35:33;11.90;99.90
40828;DHT22;26549;50.918;5.338;2024-03-25T10:38:00;12.10;99.90
40828;DHT22;26549;50.918;5.338;2024-03-25T10:40:31;12.10;99.90
40828;DHT22;26549;50.918;5.338;2024-03-25T10:43:09;12.20;99.90
40828;DHT22;26549;50.918;5.338;2024-03-25T10:45:49;12.20;99.90
40828;DHT22;26549;50.918;5.338;2024-03-25T10:48:19;12.30;99.90
40828;DHT22;26549;50.918;5.338;2024-03-25T10:50:47;12.40;99.90
40828;DHT22;26549;50.918;5.338;2024-03-25T10:53:18;12.40;99.90
40828;DHT22;26549;50.918;5.338;2024-03-25T10:55:47;12.40;99.90
40828;DHT22;26549;50.918;5.338;2024-03-25T10:58:17;12.40;99.90
40828;DHT22;26549;50.918;5.338;2024-03-25T11:00:46;12.50;99.90
40828;DHT22;26549;50.918;5.338;2024-03-25T11:03:13;12.70;99.90
40828;DHT22;26549;50.918;5.338;2024-03-25T11:05:40;12.70;99.90
40828;DHT22;26549;50.918;5.338;2024-03-25T11:08:13;12.80;99.90
40828;DHT22;26549;50.918;5.338;2024-03-25T11:10:43;12.70;99.90
40828;DHT22;26549;50.918;5.338;2024-03-25T11:13:18;12.70;99.90
40828;DHT22;26549;50.918;5.338;2024-03-25T11:15:47;12.70;99.90
40828;DHT22;26549;50.918;5.338;2024-03-25T11:18:21;12.80;99.90
40828;DHT22;26549;50.918;5.338;2024-03-25T11:21:11;12.90;99.90
40828;DHT22;26549;50.918;5.338;2024-03-25T11:23:44;12.90;99.90
40828;DHT22;26549;50.918;5.338;2024-03-25T11:26:24;12.90;99.90
40828;DHT22;26549;50.918;5.338;2024-03-25T11:28:51;12.90;99.90
40828;DHT22;26549;50.918;5.338;2024-03-25T11:31:22;13.00;99.90
40828;DHT22;26549;50.918;5.338;2024-03-25T11:33:54;13.00;99.90
40828;DHT22;26549;50.918;5.338;2024-03-25T11:36:21;13.10;99.20
40828;DHT22;26549;50.918;5.338;2024-03-25T11:39:07;13.20;99.60
40828;DHT22;26549;50.918;5.338;2024-03-25T11:41:44;13.20;99.90
40828;DHT22;26549;50.918;5.338;2024-03-25T11:44:12;13.40;98.00
40828;DHT22;26549;50.918;5.338;2024-03-25T11:46:40;13.50;97.70
40828;DHT22;26549;50.918;5.338;2024-03-25T11:49:11;13.50;97.50
40828;DHT22;26549;50.918;5.338;2024-03-25T11:51:40;13.60;98.30
40828;DHT22;26549;50.918;5.338;2024-03-25T11:54:13;13.60;97.70
40828;DHT22;26549;50.918;5.338;2024-03-25T11:56:39;13.50;97.70
40828;DHT22;26549;50.918;5.338;2024-03-25T11:59:05;13.50;98.10
40828;DHT22;26549;50.918;5.338;2024-03-25T12:01:31;13.40;97.10
40828;DHT22;26549;50.918;5.338;2024-03-25T12:03:57;13.10;96.40
40828;DHT22;26549;50.918;5.338;2024-03-25T12:06:23;13.20;97.90
40828;DHT22;26549;50.918;5.338;2024-03-25T12:08:50;13.30;98.70
40828;DHT22;26549;50.918;5.338;2024-03-25T12:11:35;13.40;98.10
40828;DHT22;26549;50.918;5.338;2024-03-25T12:14:01;13.40;97.00
40828;DHT22;26549;50.918;5.338;2024-03-25T12:16:28;13.50;98.50
40828;DHT22;26549;50.918;5.338;2024-03-25T12:18:57;13.60;97.60
40828;DHT22;26549;50.918;5.338;2024-03-25T12:21:23;13.50;97.60
40828;DHT22;26549;50.918;5.338;2024-03-25T12:23:51;13.70;97.40
40828;DHT22;26549;50.918;5.338;2024-03-25T12:26:19;13.80;98.30
40828;DHT22;26549;50.918;5.338;2024-03-25T12:28:46;13.90;97.50
40828;DHT22;26549;50.918;5.338;2024-03-25T12:31:14;13.80;96.80
40828;DHT22;26549;50.918;5.338;2024-03-25T12:33:42;13.80;96.80
40828;DHT22;26549;50.918;5.338;2024-03-25T12:36:12;13.90;97.80
40828;DHT22;26549;50.918;5.338;2024-03-25T12:38:39;13.90;95.80
40828;DHT22;26549;50.918;5.338;2024-03-25T12:41:08;14.20;94.90
40828;DHT22;26549;50.918;5.338;2024-03-25T12:43:42;14.30;95.60
40828;DHT22;26549;50.918;5.338;2024-03-25T12:46:08;14.30;94.80
40828;DHT22;26549;50.918;5.338;2024-03-25T12:48:36;14.50;94.50
40828;DHT22;26549;50.918;5.338;2024-03-25T12:51:02;14.40;94.70
40828;DHT22;26549;50.918;5.338;2024-03-25T12:53:29;14.20;94.40
40828;DHT22;26549;50.918;5.338;2024-03-25T12:55:56;14.10;94.50
40828;DHT22;26549;50.918;5.338;2024-03-25T12:58:22;14.00;94.50
40828;DHT22;26549;50.918;5.338;2024-03-25T13:00:48;14.00;94.40
40828;DHT22;26549;50.918;5.338;2024-03-25T13:03:17;14.10;95.20
40828;DHT22;26549;50.918;5.338;2024-03-25T13:05:43;14.20;95.40
40828;DHT22;26549;50.918;5.338;2024-03-25T13:08:09;14.40;94.70
40828;DHT22;26549;50.918;5.338;2024-03-25T13:10:36;14.50;94.40
40828;DHT22;26549;50.918;5.338;2024-03-25T13:13:02;14.40;94.70
40828;DHT22;26549;50.918;5.338;2024-03-25T13:15:28;14.30;94.20
40828;DHT22;26549;50.918;5.338;2024-03-25T13:17:57;14.40;94.50
40828;DHT22;26549;50.918;5.338;2024-03-25T13:20:23;14.20;93.60
40828;DHT22;26549;50.918;5.338;2024-03-25T13:22:53;14.20;94.20
40828;DHT22;26549;50.918;5.338;2024-03-25T13:25:25;14.30;94.60
40828;DHT22;26549;50.918;5.338;2024-03-25T13:27:55;14.30;94.30
40828;DHT22;26549;50.918;5.338;2024-03-25T13:30:20;14.20;93.80
40828;DHT22;26549;50.918;5.338;2024-03-25T13:32:52;14.20;94.30
40828;DHT22;26549;50.918;5.338;2024-03-25T13:35:19;14.10;94.80
40828;DHT22;26549;50.918;5.338;2024-03-25T13:37:45;14.10;94.20
40828;DHT22;26549;50.918;5.338;2024-03-25T13:40:12;14.10;94.70
40828;DHT22;26549;50.918;5.338;2024-03-25T13:42:39;14.20;94.70
40828;DHT22;26549;50.918;5.338;2024-03-25T13:45:06;14.30;94.70
40828;DHT22;26549;50.918;5.338;2024-03-25T13:47:34;14.50;94.70
40828;DHT22;26549;50.918;5.338;2024-03-25T13:50:04;14.60;93.90
40828;DHT22;26549;50.918;5.338;2024-03-25T13:52:30;14.40;93.50
40828;DHT22;26549;50.918;5.338;2024-03-25T13:54:56;14.10;93.60
40828;DHT22;26549;50.918;5.338;2024-03-25T13:57:22;14.10;94.20
40828;DHT22;26549;50.918;5.338;2024-03-25T13:59:48;14.20;94.90
40828;DHT22;26549;50.918;5.338;2024-03-25T14:02:15;14.40;94.00
40828;DHT22;26549;50.918;5.338;2024-03-25T14:04:41;14.50;94.40
40828;DHT22;26549;50.918;5.338;2024-03-25T14:07:07;14.60;94.60
40828;DHT22;26549;50.918;5.338;2024-03-25T14:09:33;14.60;93.80
40828;DHT22;26549;50.918;5.338;2024-03-25T14:12:00;14.60;94.80
40828;DHT22;26549;50.918;5.338;2024-03-25T14:14:29;14.50;94.50
40828;DHT22;26549;50.918;5.338;2024-03-25T14:16:56;14.50;93.70
40828;DHT22;26549;50.918;5.338;2024-03-25T14:19:22;14.50;93.30
40828;DHT22;26549;50.918;5.338;2024-03-25T14:21:49;14.40;93.60
40828;DHT22;26549;50.918;5.338;2024-03-25T14:24:15;14.20;94.50
40828;DHT22;26549;50.918;5.338;2024-03-25T14:26:41;14.30;93.30
40828;DHT22;26549;50.918;5.338;2024-03-25T14:29:08;14.20;93.20
40828;DHT22;26549;50.918;5.338;2024-03-25T14:31:34;14.10;93.40
40828;DHT22;26549;50.918;5.338;2024-03-25T14:33:59;13.90;94.30
40828;DHT22;26549;50.918;5.338;2024-03-25T14:36:26;14.00;93.90
40828;DHT22;26549;50.918;5.338;2024-03-25T14:38:52;13.90;93.30
40828;DHT22;26549;50.918;5.338;2024-03-25T14:41:22;13.80;93.90
40828;DHT22;26549;50.918;5.338;2024-03-25T14:43:49;13.70;94.70
40828;DHT22;26549;50.918;5.338;2024-03-25T14:46:16;13.80;94.20
40828;DHT22;26549;50.918;5.338;2024-03-25T14:48:42;13.80;94.40
40828;DHT22;26549;50.918;5.338;2024-03-25T14:51:08;13.80;94.40
40828;DHT22;26549;50.918;5.338;2024-03-25T14:53:34;13.90;93.40
40828;DHT22;26549;50.918;5.338;2024-03-25T14:56:01;13.90;94.00
40828;DHT22;26549;50.918;5.338;2024-03-25T14:58:27;13.80;95.00
40828;DHT22;26549;50.918;5.338;2024-03-25T15:00:55;13.90;94.60
40828;DHT22;26549;50.918;5.338;2024-03-25T15:03:21;13.90;94.80
40828;DHT22;26549;50.918;5.338;2024-03-25T15:05:47;14.00;94.90
40828;DHT22;26549;50.918;5.338;2024-03-25T15:08:13;14.00;94.40
40828;DHT22;26549;50.918;5.338;2024-03-25T15:10:39;14.00;93.60
40828;DHT22;26549;50.918;5.338;2024-03-25T15:13:05;14.00;94.40
40828;DHT22;26549;50.918;5.338;2024-03-25T15:15:32;14.10;93.60
40828;DHT22;26549;50.918;5.338;2024-03-25T15:18:02;13.90;93.00
40828;DHT22;26549;50.918;5.338;2024-03-25T15:20:28;13.90;94.00
40828;DHT22;26549;50.918;5.338;2024-03-25T15:22:54;13.90;94.30
40828;DHT22;26549;50.918;5.338;2024-03-25T15:25:21;14.00;93.60
40828;DHT22;26549;50.918;5.338;2024-03-25T15:27:48;14.10;93.80
40828;DHT22;26549;50.918;5.338;2024-03-25T15:30:13;14.20;93.20
40828;DHT22;26549;50.918;5.338;2024-03-25T15:32:39;14.30;92.20
40828;DHT22;26549;50.918;5.338;2024-03-25T15:35:07;14.30;92.90
40828;DHT22;26549;50.918;5.338;2024-03-25T15:37:35;14.30;92.40
40828;DHT22;26549;50.918;5.338;2024-03-25T15:40:00;14.20;92.90
40828;DHT22;26549;50.918;5.338;2024-03-25T15:42:27;14.10;92.90
40828;DHT22;26549;50.918;5.338;2024-03-25T15:44:53;14.10;92.90